Time;durP1;ratioP1;P1;durP2;ratioP2;P2;SDS_P1;SDS_P2;PMS_P1;PMS_P2;Temp;Humidity;BMP_temperature;BMP_pressure;BME280_temperature;BME280_humidity;BME280_pressure;Samples;Min_cycle;Max_cycle;Signal;HPM_P1;HPM_P2
2022/05/03 00:01:15;;;;;;;16.00;13.25;;;;;;;13.19;100.00;96128.22;5061613;28;20064;-54
2022/05/03 00:03:49;;;;;;;15.93;13.35;;;;;;;13.31;100.00;96126.06;5056089;28;20499;-57
2022/05/03 00:06:24;;;;;;;18.83;14.25;;;;;;;13.24;100.00;96122.44;5058694;28;20091;-58
2022/05/03 00:08:54;;;;;;;16.98;13.98;;;;;;;12.72;100.00;96122.81;5063136;28;20076;-57
2022/05/03 00:11:29;;;;;;;16.52;14.32;;;;;;;12.59;100.00;96121.50;5063013;28;20068;-59
2022/05/03 00:14:05;;;;;;;15.95;13.77;;;;;;;13.09;100.00;96114.34;5066864;28;20060;-59
2022/05/03 00:16:36;;;;;;;17.48;14.35;;;;;;;13.14;100.00;96111.19;5064153;28;20075;-56
2022/05/03 00:19:06;;;;;;;18.45;14.27;;;;;;;13.05;100.00;96108.56;5062951;28;20064;-56
2022/05/03 00:21:35;;;;;;;18.52;14.65;;;;;;;12.92;100.00;96110.06;5061224;28;20075;-59
2022/05/03 00:24:05;;;;;;;19.90;15.10;;;;;;;13.02;100.00;96108.88;5061564;28;20044;-55
2022/05/03 00:26:34;;;;;;;17.38;14.15;;;;;;;13.29;100.00;96106.88;5058772;28;20566;-58
2022/05/03 00:29:04;;;;;;;19.17;14.77;;;;;;;13.13;100.00;96105.06;5063107;28;20459;-56
2022/05/03 00:31:32;;;;;;;16.35;14.48;;;;;;;13.29;100.00;96107.72;5062774;28;20074;-58
2022/05/03 00:34:02;;;;;;;16.77;14.48;;;;;;;13.27;100.00;96099.09;5063488;28;20135;-56
2022/05/03 00:36:31;;;;;;;18.40;14.85;;;;;;;13.29;100.00;96105.06;5058225;28;20072;-58
2022/05/03 00:38:59;;;;;;;18.23;14.35;;;;;;;13.28;100.00;96103.41;5065623;28;20072;-59
2022/05/03 00:41:35;;;;;;;17.30;13.77;;;;;;;13.19;100.00;96106.22;5061650;28;20087;-57
2022/05/03 00:44:55;;;;;;;14.85;13.25;;;;;;;12.64;100.00;96106.97;5061002;28;20060;-58
2022/05/03 00:46:59;;;;;;;17.55;14.02;;;;;;;12.21;100.00;96119.47;5062476;28;20072;-57
2022/05/03 00:49:35;;;;;;;17.63;13.50;;;;;;;12.35;100.00;96113.53;5057280;28;20574;-56
2022/05/03 00:52:07;;;;;;;17.13;14.68;;;;;;;12.44;100.00;96101.16;5064727;28;20519;-58
2022/05/03 00:54:47;;;;;;;18.40;15.43;;;;;;;12.46;100.00;96099.19;5059428;28;20061;-58
2022/05/03 00:57:24;;;;;;;21.38;16.25;;;;;;;12.67;100.00;96104.81;5059538;28;20761;-57
2022/05/03 01:00:06;;;;;;;19.42;15.60;;;;;;;12.63;100.00;96095.56;5064716;28;20462;-58
2022/05/03 01:03:02;;;;;;;19.90;16.00;;;;;;;12.38;100.00;96091.25;5059873;28;20474;-57
2022/05/03 01:05:39;;;;;;;18.42;14.75;;;;;;;12.24;100.00;96100.66;5058099;28;21535;-58
2022/05/03 01:08:08;;;;;;;18.98;15.52;;;;;;;12.01;100.00;96103.94;5058582;28;20061;-57
2022/05/03 01:10:43;;;;;;;19.23;16.27;;;;;;;12.06;100.00;96100.78;5063725;28;20068;-58
2022/05/03 01:13:20;;;;;;;20.67;15.75;;;;;;;12.29;100.00;96096.53;5056824;28;20076;-57
2022/05/03 01:15:55;;;;;;;20.13;15.20;;;;;;;12.45;100.00;96098.34;5060847;28;20067;-58
2022/05/03 01:18:28;;;;;;;22.48;16.00;;;;;;;12.51;100.00;96091.56;5062743;28;20080;-58
2022/05/03 01:21:11;;;;;;;20.95;16.30;;;;;;;12.21;100.00;96095.69;5058990;28;20084;-58
2022/05/03 01:23:50;;;;;;;21.58;16.42;;;;;;;12.45;100.00;96103.63;5062046;28;20515;-56
2022/05/03 01:26:45;;;;;;;21.25;17.83;;;;;;;12.41;100.00;96097.03;5063286;28;20063;-57
2022/05/03 01:29:25;;;;;;;23.30;17.17;;;;;;;12.33;100.00;96102.31;5058271;28;20056;-59
2022/05/03 01:31:57;;;;;;;21.30;16.63;;;;;;;12.08;100.00;96104.94;5063142;28;20064;-51
2022/05/03 01:34:27;;;;;;;21.92;17.20;;;;;;;12.10;100.00;96105.59;5061468;28;20057;-57
2022/05/03 01:37:05;;;;;;;23.48;18.63;;;;;;;12.08;100.00;96099.66;5058466;28;20091;-56
2022/05/03 01:39:43;;;;;;;25.90;18.50;;;;;;;12.19;100.00;96098.50;5058352;28;20104;-57
2022/05/03 01:42:17;;;;;;;26.83;20.05;;;;;;;12.16;100.00;96103.28;5058949;28;20621;-50
2022/05/03 01:44:51;;;;;;;27.42;19.75;;;;;;;12.15;100.00;96105.13;5058840;28;20084;-57
2022/05/03 01:47:26;;;;;;;27.67;20.83;;;;;;;12.31;100.00;96097.19;5061211;28;21727;-57
2022/05/03 01:50:19;;;;;;;27.95;20.60;;;;;;;12.35;100.00;96092.38;5058794;28;20082;-59
2022/05/03 01:53:01;;;;;;;27.83;21.30;;;;;;;12.38;100.00;96096.53;5061529;28;20040;-58
2022/05/03 01:56:21;;;;;;;26.08;20.33;;;;;;;12.58;100.00;96096.03;5060359;28;20056;-56
2022/05/03 01:59:05;;;;;;;26.98;19.60;;;;;;;12.57;100.00;96094.38;5001136;28;20066;-58
2022/05/03 02:01:46;;;;;;;28.90;20.80;;;;;;;12.52;100.00;96094.03;4997661;28;20174;-56
2022/05/03 02:04:30;;;;;;;31.70;21.75;;;;;;;12.58;100.00;96093.38;5038911;28;20064;-59
2022/05/03 02:07:07;;;;;;;30.10;21.58;;;;;;;12.67;100.00;96098.69;5053057;28;20468;-58
2022/05/03 02:09:51;;;;;;;27.60;20.95;;;;;;;12.44;100.00;96101.16;5062046;28;20460;-58
2022/05/03 02:12:21;;;;;;;28.33;21.00;;;;;;;12.72;100.00;96097.19;5060766;28;20064;-59
2022/05/03 02:14:52;;;;;;;26.63;21.35;;;;;;;12.55;100.00;96092.91;5066905;28;20048;-59
2022/05/03 02:17:54;;;;;;;26.20;20.08;;;;;;;12.58;100.00;96098.69;5066774;28;20032;-56
2022/05/03 02:21:03;;;;;;;25.65;18.40;;;;;;;12.40;100.00;96099.84;5057842;28;20543;-55
2022/05/03 02:23:38;;;;;;;24.10;19.13;;;;;;;12.14;100.00;96105.25;5061023;28;22394;-59
2022/05/03 02:26:32;;;;;;;26.30;19.42;;;;;;;11.94;100.00;96105.56;5064420;28;20491;-56
2022/05/03 02:29:04;;;;;;;24.10;18.65;;;;;;;12.15;100.00;96106.91;5059104;28;20710;-59
2022/05/03 02:31:42;;;;;;;25.67;18.95;;;;;;;12.27;100.00;96095.84;5069038;28;20483;-56
2022/05/03 02:34:26;;;;;;;23.17;18.35;;;;;;;12.45;100.00;96108.91;5073829;28;20069;-57
2022/05/03 02:36:57;;;;;;;24.70;18.38;;;;;;;12.72;100.00;96094.53;5067071;28;20066;-58
2022/05/03 02:39:29;;;;;;;26.13;19.45;;;;;;;12.64;100.00;96104.31;5066981;28;20068;-54
2022/05/03 02:42:00;;;;;;;27.27;19.75;;;;;;;12.05;100.00;96097.34;5067679;28;20526;-57
2022/05/03 02:44:30;;;;;;;23.55;18.92;;;;;;;12.18;100.00;96102.16;5061811;28;20086;-56
2022/05/03 02:47:04;;;;;;;24.00;18.02;;;;;;;12.27;100.00;96097.69;5064189;28;20064;-58
2022/05/03 02:49:46;;;;;;;23.85;18.00;;;;;;;12.61;100.00;96091.41;5066482;28;20091;-56
2022/05/03 02:52:22;;;;;;;22.98;18.38;;;;;;;12.40;100.00;96092.75;5067523;28;20082;-51
2022/05/03 02:54:58;;;;;;;25.27;18.95;;;;;;;12.26;100.00;96094.22;5064778;28;20068;-55
2022/05/03 02:57:32;;;;;;;23.08;18.48;;;;;;;12.29;100.00;96093.91;5068820;28;20547;-55
2022/05/03 03:03:07;;;;;;;24.87;18.93;;;;;;;12.11;100.00;96101.97;5061644;28;20106;-58
2022/05/03 03:05:39;;;;;;;25.45;19.85;;;;;;;12.46;100.00;96100.03;5065787;28;20505;-59
2022/05/03 03:08:08;;;;;;;28.60;21.67;;;;;;;12.30;100.00;96097.34;5068907;28;20076;-58
2022/05/03 03:10:39;;;;;;;31.42;22.52;;;;;;;12.15;100.00;96096.34;5068310;28;20064;-54
2022/05/03 03:13:16;;;;;;;29.63;22.50;;;;;;;12.27;100.00;96089.75;5068389;28;20936;-58
2022/05/03 03:15:44;;;;;;;30.30;22.48;;;;;;;12.45;100.00;96094.88;5072041;28;20095;-55
2022/05/03 03:18:14;;;;;;;31.48;22.08;;;;;;;12.16;100.00;96096.19;5065689;28;20091;-57
2022/05/03 03:20:46;;;;;;;31.27;22.50;;;;;;;12.20;100.00;96094.88;5063081;28;20080;-56
2022/05/03 03:23:16;;;;;;;28.02;21.40;;;;;;;12.37;100.00;96100.19;5069097;28;20068;-59
2022/05/03 03:25:44;;;;;;;25.35;19.60;;;;;;;12.57;100.00;96096.22;5064927;28;20064;-57
2022/05/03 03:28:13;;;;;;;24.75;18.83;;;;;;;12.72;100.00;96099.00;5064865;28;20533;-59
2022/05/03 03:30:42;;;;;;;23.80;18.98;;;;;;;12.38;100.00;96097.34;5064022;28;20080;-57
2022/05/03 03:33:11;;;;;;;22.85;17.02;;;;;;;12.25;100.00;96099.66;5062444;28;20079;-59
2022/05/03 03:35:41;;;;;;;23.30;15.40;;;;;;;12.18;100.00;96098.66;5059304;28;20072;-59
2022/05/03 03:38:11;;;;;;;18.13;15.40;;;;;;;12.40;100.00;96095.38;5058913;28;20107;-59
2022/05/03 03:40:41;;;;;;;20.33;14.18;;;;;;;12.34;100.00;96093.38;5065274;28;20060;-56
2022/05/03 03:43:09;;;;;;;16.55;13.82;;;;;;;11.82;100.00;96101.53;5061643;28;20079;-57
2022/05/03 03:45:37;;;;;;;15.82;13.20;;;;;;;12.33;100.00;96094.38;5058289;28;21130;-58
2022/05/03 03:48:06;;;;;;;16.55;13.70;;;;;;;12.00;100.00;96098.78;5062997;28;20088;-53
2022/05/03 03:50:36;;;;;;;14.00;12.07;;;;;;;12.17;100.00;96103.13;5061728;28;20095;-55
2022/05/03 03:53:05;;;;;;;13.65;12.18;;;;;;;12.05;100.00;96099.97;5060316;28;20067;-56
2022/05/03 03:55:35;;;;;;;13.45;12.00;;;;;;;11.71;100.00;96104.47;5059386;28;20040;-59
2022/05/03 03:58:04;;;;;;;15.10;13.05;;;;;;;12.04;100.00;96103.63;5065030;28;20068;-50
2022/05/03 04:00:33;;;;;;;13.60;12.13;;;;;;;12.31;100.00;96107.75;5059519;28;20064;-56
2022/05/03 04:03:02;;;;;;;18.55;12.63;;;;;;;12.33;100.00;96099.69;5063705;28;20069;-58
2022/05/03 04:05:30;;;;;;;15.75;12.95;;;;;;;12.20;100.00;96096.69;5058305;28;20458;-58
2022/05/03 04:07:59;;;;;;;15.52;12.55;;;;;;;12.31;100.00;96104.28;5069370;28;20057;-56
2022/05/03 04:10:27;;;;;;;15.48;12.55;;;;;;;12.10;100.00;96102.94;5064692;28;20064;-58
2022/05/03 04:12:57;;;;;;;15.88;12.88;;;;;;;12.19;100.00;96098.50;5050596;28;20072;-56
2022/05/03 04:15:26;;;;;;;14.35;12.85;;;;;;;12.46;100.00;96094.72;5049726;28;20591;-58
2022/05/03 04:17:54;;;;;;;14.45;13.00;;;;;;;12.98;100.00;96099.63;5063330;28;20091;-58
2022/05/03 04:20:23;;;;;;;16.42;13.60;;;;;;;13.15;100.00;96094.31;5054749;28;20080;-54
2022/05/03 04:22:51;;;;;;;13.73;12.43;;;;;;;13.21;100.00;96093.63;5076010;28;20574;-58
2022/05/03 04:25:19;;;;;;;12.68;11.23;;;;;;;13.09;100.00;96093.16;5057207;28;20091;-58
2022/05/03 04:27:48;;;;;;;12.25;10.98;;;;;;;13.58;100.00;96089.56;5077290;28;20474;-58
2022/05/03 04:30:17;;;;;;;12.75;11.45;;;;;;;13.92;100.00;96094.53;5071724;28;20083;-56
2022/05/03 04:32:45;;;;;;;12.50;11.20;;;;;;;13.74;100.00;96090.31;5060767;28;20084;-56
2022/05/03 04:35:14;;;;;;;11.88;10.68;;;;;;;13.78;100.00;96090.78;5061973;28;20471;-58
2022/05/03 04:37:42;;;;;;;11.18;9.90;;;;;;;13.16;100.00;96098.59;5066915;28;20037;-58
2022/05/03 04:40:12;;;;;;;11.63;9.50;;;;;;;13.29;100.00;96097.13;5062172;28;20065;-58
2022/05/03 04:42:45;;;;;;;11.23;10.02;;;;;;;13.05;100.00;96097.16;5062608;28;20080;-56
2022/05/03 04:45:14;;;;;;;11.82;10.13;;;;;;;13.09;100.00;96102.94;5049943;28;20076;-54
2022/05/03 04:47:43;;;;;;;11.95;10.68;;;;;;;13.63;100.00;96097.81;5069153;28;20049;-59
2022/05/03 04:50:12;;;;;;;11.82;10.60;;;;;;;13.73;100.00;96099.25;5067632;28;20086;-59
2022/05/03 04:52:41;;;;;;;11.77;10.27;;;;;;;13.28;100.00;96105.22;5057609;28;20064;-58
2022/05/03 04:55:09;;;;;;;12.05;10.40;;;;;;;13.85;100.00;96104.16;5062676;28;20458;-56
2022/05/03 04:57:37;;;;;;;12.15;10.73;;;;;;;13.72;100.00;96102.88;5063227;28;20064;-56
2022/05/03 05:00:07;;;;;;;14.07;11.10;;;;;;;14.18;100.00;96112.78;5068838;28;20083;-58
2022/05/03 05:02:36;;;;;;;13.63;11.40;;;;;;;13.56;100.00;96116.22;5071971;28;20522;-58
2022/05/03 05:05:07;;;;;;;12.07;10.57;;;;;;;13.24;100.00;96119.78;5080815;28;20055;-59
2022/05/03 05:07:35;;;;;;;13.90;12.02;;;;;;;13.18;100.00;96120.44;5059446;28;20068;-56
2022/05/03 05:12:50;;;;;;;14.43;11.43;;;;;;;13.70;100.00;96120.81;5065806;28;20033;-58
2022/05/03 05:15:18;;;;;;;13.52;11.77;;;;;;;13.73;100.00;96117.81;5062034;28;20064;-58
2022/05/03 05:17:47;;;;;;;14.10;11.43;;;;;;;14.09;100.00;96125.25;5061295;28;20434;-58
2022/05/03 05:20:17;;;;;;;14.82;11.63;;;;;;;14.13;100.00;96123.88;5061840;28;20625;-56
2022/05/03 05:22:45;;;;;;;14.23;10.77;;;;;;;14.21;100.00;96123.84;5052094;28;20049;-54
2022/05/03 05:25:34;;;;;;;12.90;11.10;;;;;;;14.25;100.00;96130.44;5055274;28;20068;-58
2022/05/03 05:28:02;;;;;;;13.52;11.80;;;;;;;14.21;100.00;96128.31;5070403;28;20060;-58
2022/05/03 05:30:30;;;;;;;16.08;12.05;;;;;;;14.28;100.00;96133.75;5064505;28;20064;-58
2022/05/03 05:32:59;;;;;;;15.02;10.98;;;;;;;13.89;100.00;96130.16;5067305;28;20450;-57
2022/05/03 05:35:28;;;;;;;13.50;10.95;;;;;;;13.40;100.00;96130.34;5064779;28;20070;-58
2022/05/03 05:37:57;;;;;;;12.63;10.17;;;;;;;13.40;100.00;96134.81;5057518;28;20057;-57
2022/05/03 05:40:25;;;;;;;14.30;10.35;;;;;;;14.09;100.00;96127.88;5054873;28;20036;-58
2022/05/03 05:42:54;;;;;;;13.13;10.98;;;;;;;13.82;100.00;96133.66;5048100;28;20067;-59
2022/05/03 05:45:22;;;;;;;14.70;12.60;;;;;;;14.07;100.00;96129.06;5074507;28;20102;-59
2022/05/03 05:47:50;;;;;;;15.32;11.82;;;;;;;14.21;100.00;96136.25;5066588;28;20530;-58
2022/05/03 05:50:19;;;;;;;15.90;11.05;;;;;;;13.68;100.00;96132.56;5052292;28;20076;-58
2022/05/03 05:55:35;;;;;;;15.02;10.02;;;;;;;14.23;100.00;96131.63;5073862;28;20092;-58
2022/05/03 05:58:03;;;;;;;12.23;9.95;;;;;;;14.17;100.00;96132.31;5069284;28;20055;-57
2022/05/03 06:00:32;;;;;;;14.30;10.82;;;;;;;14.36;100.00;96139.81;5064908;28;20069;-57
2022/05/03 06:03:00;;;;;;;12.60;9.43;;;;;;;14.01;100.00;96144.69;5055643;28;20075;-55
2022/05/03 06:05:30;;;;;;;15.07;10.68;;;;;;;14.24;100.00;96144.69;5058416;28;20076;-58
2022/05/03 06:08:00;;;;;;;;;;;;;;;14.14;100.00;96143.28;5060050;28;20075;-58
2022/05/03 06:10:29;;;;;;;13.68;10.57;;;;;;;14.52;100.00;96138.94;5050628;28;20415;-59
2022/05/03 06:12:59;;;;;;;12.07;10.68;;;;;;;14.31;100.00;96147.47;5066458;28;20059;-59
2022/05/03 06:15:28;;;;;;;13.98;10.35;;;;;;;14.06;100.00;96151.28;5059134;28;20069;-59
2022/05/03 06:17:56;;;;;;;14.48;10.57;;;;;;;13.91;100.00;96144.06;5052953;28;20079;-59
2022/05/03 06:20:25;;;;;;;13.30;11.02;;;;;;;14.81;100.00;96140.03;5058536;28;20541;-59
2022/05/03 06:22:53;;;;;;;15.90;11.50;;;;;;;13.97;100.00;96146.03;5057833;28;20065;-58
2022/05/03 06:25:23;;;;;;;14.95;11.65;;;;;;;14.43;100.00;96140.78;5052344;28;20474;-57
2022/05/03 06:27:51;;;;;;;15.75;12.98;;;;;;;14.77;100.00;96144.06;5068322;28;20588;-59
2022/05/03 06:30:20;;;;;;;15.32;12.98;;;;;;;15.19;100.00;96140.84;5065826;28;20076;-56
2022/05/03 06:32:48;;;;;;;16.67;13.68;;;;;;;15.71;100.00;96137.31;5061442;28;20048;-58
2022/05/03 06:35:17;;;;;;;17.52;13.77;;;;;;;16.20;100.00;96144.66;5062755;28;20083;-60
2022/05/03 06:37:45;;;;;;;15.10;12.98;;;;;;;15.95;100.00;96138.03;5066253;28;20064;-59
2022/05/03 06:40:13;;;;;;;16.40;13.40;;;;;;;16.47;100.00;96148.44;5051731;28;20189;-60
2022/05/03 06:42:43;;;;;;;14.38;12.85;;;;;;;15.97;100.00;96149.31;5059021;28;20518;-59
2022/05/03 06:45:11;;;;;;;14.37;12.77;;;;;;;15.57;100.00;96151.41;5055816;28;20088;-59
2022/05/03 06:47:44;;;;;;;16.58;13.00;;;;;;;16.21;100.00;96154.31;5060775;28;20486;-58
2022/05/03 06:50:13;;;;;;;14.50;12.75;;;;;;;15.73;100.00;96161.91;5058774;28;20095;-58
2022/05/03 06:52:41;;;;;;;15.68;13.65;;;;;;;16.19;100.00;96158.97;5075654;28;20049;-59
2022/05/03 06:55:11;;;;;;;14.13;12.63;;;;;;;16.00;100.00;96160.41;5057616;28;20090;-58
2022/05/03 06:57:40;;;;;;;16.63;13.32;;;;;;;16.31;100.00;96165.47;5069320;28;20075;-58
2022/05/03 07:00:10;;;;;;;15.27;12.38;;;;;;;15.74;100.00;96160.06;5078216;28;20084;-56
2022/05/03 07:02:39;;;;;;;14.85;11.48;;;;;;;15.73;100.00;96164.56;5060294;28;20088;-59
2022/05/03 07:05:08;;;;;;;14.00;12.27;;;;;;;15.67;100.00;96173.25;5059219;28;20459;-58
2022/05/03 07:07:36;;;;;;;14.75;12.05;;;;;;;15.13;100.00;96176.91;5058252;28;20077;-57
2022/05/03 07:10:05;;;;;;;16.00;12.70;;;;;;;15.18;100.00;96174.56;5060806;28;20064;-58
2022/05/03 07:12:34;;;;;;;17.77;12.20;;;;;;;15.66;100.00;96175.09;5067834;28;20076;-53
2022/05/03 07:15:04;;;;;;;13.85;9.65;;;;;;;15.80;100.00;96176.09;5057391;28;20080;-57
2022/05/03 07:23:06;;;;;;;11.50;9.85;;;;;;;16.89;100.00;96168.13;5056706;28;20061;-58
2022/05/03 07:25:35;;;;;;;12.02;9.05;;;;;;;17.30;100.00;96154.94;5051052;28;20064;-57
2022/05/03 07:28:04;;;;;;;12.23;9.30;;;;;;;17.50;100.00;96164.91;5066272;28;20069;-58
2022/05/03 07:30:33;;;;;;;11.18;9.18;;;;;;;17.35;100.00;96161.53;5063599;28;20056;-55
2022/05/03 07:33:04;;;;;;;12.25;9.90;;;;;;;17.41;100.00;96158.91;5060123;28;20081;-58
2022/05/03 07:35:32;;;;;;;10.90;9.60;;;;;;;17.21;100.00;96157.97;5053463;28;20393;-57
2022/05/03 07:38:00;;;;;;;11.60;10.30;;;;;;;17.54;100.00;96161.66;5063369;28;20099;-58
2022/05/03 07:40:29;;;;;;;12.43;11.13;;;;;;;18.35;100.00;96162.91;5056523;28;20079;-58
2022/05/03 07:42:57;;;;;;;12.30;9.98;;;;;;;18.21;100.00;96175.38;5057370;28;20071;-59
2022/05/03 07:45:26;;;;;;;13.23;11.30;;;;;;;18.14;100.00;96174.53;5063639;28;20068;-60
2022/05/03 07:47:54;;;;;;;12.80;10.98;;;;;;;17.72;100.00;96173.66;5067077;28;20076;-59
2022/05/03 07:50:24;;;;;;;11.48;10.27;;;;;;;18.17;100.00;96171.44;5068356;28;20064;-57
2022/05/03 07:52:52;;;;;;;12.00;9.93;;;;;;;18.01;100.00;96170.78;5067941;28;20562;-56
2022/05/03 07:55:20;;;;;;;11.32;10.10;;;;;;;18.29;100.00;96169.03;5067731;28;20064;-59
2022/05/03 07:57:49;;;;;;;14.63;10.18;;;;;;;18.29;100.00;96169.84;5074101;28;20056;-59
2022/05/03 08:00:18;;;;;;;12.95;9.45;;;;;;;18.86;100.00;96176.63;5067660;28;20076;-59
2022/05/03 08:02:46;;;;;;;9.93;8.60;;;;;;;19.37;100.00;96173.34;5064649;28;20053;-57
2022/05/03 08:05:16;;;;;;;11.82;9.70;;;;;;;19.11;100.00;96179.50;5067008;28;20566;-58
2022/05/03 08:07:46;;;;;;;11.10;9.85;;;;;;;19.77;100.00;96177.84;5061570;28;20060;-57
2022/05/03 08:10:15;;;;;;;;;;;;;;;19.50;100.00;96175.19;5056904;28;20071;-58
2022/05/03 08:12:43;;;;;;;9.98;7.63;;;;;;;19.30;100.00;96185.88;5055487;28;19959;-60
2022/05/03 08:15:11;;;;;;;10.27;8.68;;;;;;;19.57;100.00;96167.97;5049560;28;20095;-58
2022/05/03 08:17:40;;;;;;;11.10;9.50;;;;;;;19.47;100.00;96186.28;5062608;28;20095;-58
2022/05/03 08:20:09;;;;;;;9.07;8.07;;;;;;;19.50;100.00;96193.06;5056100;28;20037;-60
2022/05/03 08:22:37;;;;;;;11.27;8.52;;;;;;;19.12;100.00;96191.03;5055447;28;20064;-59
2022/05/03 08:25:08;;;;;;;10.90;8.88;;;;;;;18.73;100.00;96193.44;5055925;28;20060;-58
2022/05/03 08:27:38;;;;;;;10.07;8.10;;;;;;;19.26;100.00;96195.34;5064331;28;20068;-58
2022/05/03 08:30:08;;;;;;;9.07;8.18;;;;;;;19.98;100.00;96192.81;5065241;28;20460;-59
2022/05/03 08:32:36;;;;;;;6.78;6.07;;;;;;;19.67;100.00;96202.34;5059565;28;20080;-59
2022/05/03 08:35:05;;;;;;;8.40;7.38;;;;;;;20.27;100.00;96194.19;5077763;28;20517;-55
2022/05/03 08:43:07;;;;;;;9.18;8.10;;;;;;;20.96;100.00;96198.81;5062410;28;20071;-59
2022/05/03 08:45:35;;;;;;;9.82;8.85;;;;;;;21.14;100.00;96194.56;5070262;28;20462;-59
2022/05/03 08:48:04;;;;;;;11.32;9.00;;;;;;;21.07;100.00;96205.31;5058456;28;20075;-57
2022/05/03 08:50:34;;;;;;;10.75;8.90;;;;;;;21.49;100.00;96195.72;5060697;28;21810;-59
2022/05/03 08:53:04;;;;;;;10.35;9.25;;;;;;;21.17;100.00;96197.63;5062224;28;20531;-59
2022/05/03 08:55:34;;;;;;;10.32;8.90;;;;;;;21.36;100.00;96195.03;5062311;28;20472;-59
2022/05/03 08:58:02;;;;;;;9.80;8.80;;;;;;;20.57;100.00;96200.66;5072391;28;20073;-57
2022/05/03 09:00:32;;;;;;;10.32;9.32;;;;;;;21.06;100.00;96193.78;5064663;28;20068;-59
2022/05/03 09:03:00;;;;;;;10.57;9.47;;;;;;;20.97;100.00;96192.38;5059568;28;20076;-58
2022/05/03 09:05:29;;;;;;;10.55;9.50;;;;;;;20.54;100.00;96190.38;5057992;28;20071;-59
2022/05/03 09:07:59;;;;;;;10.70;9.50;;;;;;;21.33;100.00;96185.50;5057240;28;20060;-58
2022/05/03 09:10:28;;;;;;;9.77;8.77;;;;;;;21.51;100.00;96185.63;5055516;28;20061;-57
2022/05/03 09:13:13;;;;;;;10.52;9.43;;;;;;;21.95;100.00;96185.59;5061372;28;20052;-60
2022/05/03 09:15:42;;;;;;;11.98;10.77;;;;;;;21.27;100.00;96187.22;5060658;28;20448;-59
2022/05/03 09:18:20;;;;;;;16.25;11.30;;;;;;;21.63;100.00;96183.00;5065913;28;20084;-59
2022/05/03 09:26:20;;;;;;;10.05;8.70;;;;;;;21.95;100.00;96189.09;5056459;28;20538;-59
2022/05/03 09:28:52;;;;;;;9.43;7.90;;;;;;;22.08;100.00;96196.19;5073474;28;20573;-58
2022/05/03 09:31:31;;;;;;;8.95;8.02;;;;;;;21.22;100.00;96191.59;5057011;28;20475;-58
2022/05/03 09:34:01;;;;;;;11.00;9.75;;;;;;;21.89;100.00;96181.94;5060326;28;20064;-58
2022/05/03 09:36:41;;;;;;;8.93;8.03;;;;;;;22.38;100.00;96182.03;5054930;28;20072;-59
2022/05/03 09:39:31;;;;;;;12.38;10.02;;;;;;;21.39;100.00;96192.72;5055257;28;20534;-58
2022/05/03 09:42:07;;;;;;;12.70;10.20;;;;;;;21.53;100.00;96177.34;5068101;28;20523;-59
2022/05/03 09:44:37;;;;;;;10.40;9.40;;;;;;;21.23;100.00;96177.97;5061888;28;20514;-59
2022/05/03 09:47:12;;;;;;;11.35;9.90;;;;;;;21.82;100.00;96181.19;5057783;28;20060;-59
2022/05/03 09:49:41;;;;;;;11.20;10.10;;;;;;;21.74;100.00;96176.09;5058262;28;20052;-61
2022/05/03 09:52:27;;;;;;;11.25;9.95;;;;;;;21.88;100.00;96176.78;5059646;28;20068;-59
2022/05/03 09:54:59;;;;;;;10.30;9.13;;;;;;;22.48;100.00;96182.31;5057444;28;20067;-57
2022/05/03 09:57:29;;;;;;;9.57;8.57;;;;;;;22.51;100.00;96177.31;5069768;28;20060;-58
2022/05/03 09:59:59;;;;;;;10.37;8.97;;;;;;;22.42;100.00;96175.16;5059567;28;20088;-59
2022/05/03 10:02:29;;;;;;;8.35;7.55;;;;;;;22.40;100.00;96175.41;5061210;28;20069;-59
2022/05/03 10:04:59;;;;;;;8.82;7.90;;;;;;;22.43;100.00;96179.47;5048579;28;20539;-58
2022/05/03 10:07:29;;;;;;;8.43;7.63;;;;;;;21.97;100.00;96176.28;5054763;28;20064;-57
2022/05/03 10:09:57;;;;;;;8.60;7.80;;;;;;;22.02;100.00;96173.75;5060903;28;20526;-59
2022/05/03 10:12:25;;;;;;;8.68;7.53;;;;;;;22.45;100.00;96175.53;5058549;28;20072;-55
2022/05/03 10:14:53;;;;;;;8.00;7.13;;;;;;;22.09;100.00;96170.16;5061288;28;20273;-59
2022/05/03 10:20:40;;;;;;;8.95;7.45;;;;;;;22.40;100.00;96172.72;5028680;28;20060;-58
2022/05/03 10:23:21;;;;;;;6.28;5.63;;;;;;;21.80;100.00;96167.16;5053521;28;20064;-57
2022/05/03 10:25:51;;;;;;;7.82;5.85;;;;;;;21.76;95.63;96168.66;5054997;28;20063;-59
2022/05/03 10:28:19;;;;;;;5.20;4.57;;;;;;;21.92;94.72;96160.03;5066003;28;20064;-57
2022/05/03 10:31:08;;;;;;;6.28;5.50;;;;;;;21.24;100.00;96163.53;5065094;28;20068;-58
2022/05/03 10:33:39;;;;;;;7.03;6.20;;;;;;;21.27;100.00;96156.91;5055717;28;20065;-55
2022/05/03 10:36:45;;;;;;;6.95;6.28;;;;;;;21.20;100.00;96153.47;5064185;28;20083;-56
2022/05/03 10:39:22;;;;;;;8.48;7.10;;;;;;;21.95;100.00;96148.00;5067609;28;20510;-56
2022/05/03 10:41:54;;;;;;;5.93;5.35;;;;;;;22.10;100.00;96143.09;5075529;28;20080;-55
2022/05/03 10:44:39;;;;;;;5.28;4.78;;;;;;;21.76;85.67;96147.19;5074117;28;20056;-53
2022/05/03 10:47:10;;;;;;;5.75;5.15;;;;;;;21.67;92.53;96152.00;5065097;28;20063;-51
2022/05/03 10:50:16;;;;;;;7.68;4.20;;;;;;;22.17;90.68;96140.34;5070794;28;20079;-58
2022/05/03 10:53:07;;;;;;;5.88;5.00;;;;;;;22.30;100.00;96140.19;5057356;28;20075;-58
2022/05/03 10:55:37;;;;;;;5.35;4.65;;;;;;;22.45;77.30;96143.28;5058761;28;20064;-56
2022/05/03 10:58:18;;;;;;;;;;;;;;;21.98;100.00;96136.81;5068886;28;20060;-58
2022/05/03 11:01:08;;;;;;;6.88;5.72;;;;;;;21.24;100.00;96136.69;5067559;28;19956;-58
2022/05/03 11:03:37;;;;;;;6.47;5.78;;;;;;;21.86;100.00;96135.94;5057422;28;20060;-56
2022/05/03 11:06:32;;;;;;;5.80;5.20;;;;;;;21.83;92.83;96128.31;5064702;28;20530;-58
2022/05/03 11:09:11;;;;;;;5.00;4.50;;;;;;;21.30;100.00;96129.63;5059139;28;20456;-59
2022/05/03 11:12:04;;;;;;;5.82;4.70;;;;;;;21.95;100.00;96121.16;5063826;28;21563;-54
2022/05/03 11:15:05;;;;;;;7.50;6.38;;;;;;;21.78;99.92;96116.41;5060449;28;20556;-58
2022/05/03 11:17:42;;;;;;;5.07;4.57;;;;;;;21.67;100.00;96119.81;5062149;28;20471;-59
2022/05/03 11:20:11;;;;;;;4.88;4.38;;;;;;;21.82;96.81;96119.44;5058010;28;20076;-58
2022/05/03 11:22:39;;;;;;;5.57;4.95;;;;;;;21.62;100.00;96113.47;5065802;28;20072;-59
2022/05/03 11:25:13;;;;;;;5.78;5.05;;;;;;;22.10;89.30;96113.53;5079032;28;20068;-54
2022/05/03 11:27:43;;;;;;;4.88;4.38;;;;;;;22.08;86.53;96107.56;5068705;28;20083;-58
2022/05/03 11:30:16;;;;;;;4.90;4.35;;;;;;;22.10;85.90;96100.13;5063483;28;20558;-57
2022/05/03 11:32:44;;;;;;;5.80;4.35;;;;;;;21.64;78.99;96101.47;5062774;28;20094;-60
2022/05/03 11:35:15;;;;;;;5.00;4.22;;;;;;;21.44;79.90;96099.00;5076241;28;20065;-56
2022/05/03 11:37:52;;;;;;;4.60;4.18;;;;;;;21.78;72.18;96099.44;5061686;28;20068;-59
2022/05/03 11:40:23;;;;;;;5.38;4.10;;;;;;;22.09;85.91;96093.09;5061309;28;20068;-58
2022/05/03 11:42:52;;;;;;;3.75;3.45;;;;;;;21.71;75.50;96088.81;5056339;28;20037;-56
2022/05/03 11:45:20;;;;;;;5.70;3.90;;;;;;;22.19;68.66;96098.78;5061877;28;20075;-58
2022/05/03 11:47:50;;;;;;;4.93;3.40;;;;;;;22.52;61.66;96092.94;5068933;28;20515;-59
2022/05/03 11:56:01;;;;;;;4.82;4.32;;;;;;;22.47;63.91;96084.78;5056875;28;20120;-59
2022/05/03 11:58:31;;;;;;;4.93;4.07;;;;;;;22.23;68.95;96080.38;5063394;28;20071;-58
2022/05/03 12:01:00;;;;;;;6.10;5.50;;;;;;;22.72;67.28;96081.09;5063275;28;20076;-61
2022/05/03 12:03:28;;;;;;;6.15;5.30;;;;;;;22.46;72.67;96076.91;5055447;28;20067;-58
2022/05/03 12:06:04;;;;;;;6.45;5.85;;;;;;;22.78;80.90;96074.81;5076551;28;20525;-59
2022/05/03 12:08:34;;;;;;;6.00;5.10;;;;;;;22.73;77.87;96077.34;5063868;28;20095;-59
2022/05/03 12:11:04;;;;;;;5.50;4.88;;;;;;;22.89;62.64;96073.19;5058181;28;20083;-59
2022/05/03 12:13:34;;;;;;;6.60;5.85;;;;;;;22.72;77.96;96071.16;5054966;28;20072;-60